Terminal Aerodrome Forecast
Issued by NWS Melbourne, FL

Home | Current Version | Previous Version | Text Only | Print | Product List | Glossary On
Versions: 1 2 3 4 5 6 7 8 9 10 11 12
000
FTUS42 KMLB 210524
TAFVRB
TAF
KVRB 210524Z 2106/2206 08010KT P6SM VCSH SCT020 BKN040
     FM211400 09015G23KT P6SM VCSH SCT025 BKN050
     FM220000 10014G22KT P6SM VCSH SCT020 BKN040=

USA.gov is the U.S. government's official web portal to all federal, state and local government web resources and services.